CheckWX is a tool to help pilots better visualize weather data.  It is not intended as a substitute for an official pre-flight weather briefing.

19:08:04 UTC

KGUL METAR
Gunnison
Gunnison, Texas, USA
Current

33 mins ago

KGUL 221835Z AUTO 14017KT 3SM BR SCT031 23/22 A2996 RMK A01
Observed
Feb-22 @ 18:35 UTC
Wind
  • 140° at 17 KTS
Visibility
3 SM
Flight Rules
MVFR
Conditions
Mist
Cloud Levels
  • Scattered at 3,100' AGL
Temperature
23°C / 73°F
Dewpoint
22°C / 72°F
Humidity
94%
Altimeter
29.96" Hg
Pressure
1014.52 hPa
Previous

53 mins ago

KGUL 221815Z AUTO 14016KT 3SM BR SCT031 23/22 A2997 RMK A01
Observed
Feb-22 @ 18:15 UTC
Wind
  • 140° at 16 KTS
Visibility
3 SM
Flight Rules
MVFR
Conditions
Mist
Cloud Levels
  • Scattered at 3,100' AGL
Temperature
23°C / 73°F
Dewpoint
22°C / 72°F
Humidity
94%
Altimeter
29.97" Hg
Pressure
1014.92 hPa
Previous

1 hour ago

KGUL 221755Z AUTO 14016KT 3SM BR FEW030 23/22 A2998 RMK A01
Observed
Feb-22 @ 17:55 UTC
Wind
  • 140° at 16 KTS
Visibility
3 SM
Flight Rules
MVFR
Conditions
Mist
Cloud Levels
  • Few at 3,000' AGL
Temperature
23°C / 73°F
Dewpoint
22°C / 72°F
Humidity
94%
Altimeter
29.98" Hg
Pressure
1015.22 hPa